Time;durP1;ratioP1;P1;durP2;ratioP2;P2;SDS_P1;SDS_P2;PMS_P1;PMS_P2;Temp;Humidity;BMP_temperature;BMP_pressure;BME280_temperature;BME280_humidity;BME280_pressure;Samples;Min_cycle;Max_cycle;Signal;HPM_P1;HPM_P2
2023/10/13 00:01:56;;;;;;;11.68;1.95;;;;;;;7.60;100.00;101092.00;4937086;29;20179;-48
2023/10/13 00:04:22;;;;;;;7.88;2.22;;;;;;;7.66;100.00;101092.81;4940712;29;20591;-50
2023/10/13 00:06:48;;;;;;;6.28;1.90;;;;;;;7.69;100.00;101092.72;4934091;29;20191;-51
2023/10/13 00:09:14;;;;;;;4.53;1.92;;;;;;;7.73;100.00;101097.97;4933420;29;20264;-47
2023/10/13 00:11:46;;;;;;;10.18;1.80;;;;;;;7.83;100.00;101104.84;4937692;28;20190;-48
2023/10/13 00:14:17;;;;;;;6.30;1.58;;;;;;;7.94;100.00;101099.28;4939073;29;20290;-48
2023/10/13 00:17:05;;;;;;;12.95;1.88;;;;;;;8.01;100.00;101084.00;4943946;29;20188;-49
2023/10/13 00:19:46;;;;;;;9.50;1.90;;;;;;;8.07;100.00;101072.28;4938448;29;20191;-49
2023/10/13 00:22:15;;;;;;;10.02;1.90;;;;;;;8.14;100.00;101081.91;4939587;29;20539;-47
2023/10/13 00:24:45;;;;;;;7.13;1.70;;;;;;;8.19;100.00;101088.00;4942875;29;20267;-49
2023/10/13 00:27:30;;;;;;;10.77;1.60;;;;;;;8.23;100.00;101077.22;4940443;29;20287;-48
2023/10/13 00:30:17;;;;;;;4.53;1.33;;;;;;;8.30;100.00;101074.41;4939255;29;20187;-51
2023/10/13 00:32:53;;;;;;;8.93;1.58;;;;;;;8.32;100.00;101059.22;4940324;29;20238;-47
2023/10/13 00:35:25;;;;;;;7.20;1.88;;;;;;;8.37;100.00;101057.31;4936925;29;20226;-47
2023/10/13 00:37:53;;;;;;;10.35;2.15;;;;;;;8.42;100.00;101064.34;4936873;29;20187;-48
2023/10/13 00:45:43;;;;;;;8.23;1.73;;;;;;;8.51;100.00;101036.50;4939574;29;20176;-47
2023/10/13 00:48:11;;;;;;;6.70;1.73;;;;;;;8.55;100.00;101035.53;4939058;29;20190;-50
2023/10/13 00:50:37;;;;;;;7.30;1.80;;;;;;;8.56;100.00;101034.59;4937980;29;20563;-48
2023/10/13 00:53:04;;;;;;;7.00;1.67;;;;;;;8.58;100.00;101029.22;4935887;29;20215;-48
2023/10/13 00:55:33;;;;;;;8.70;2.38;;;;;;;8.59;100.00;101029.19;4939763;29;20234;-50
2023/10/13 00:58:03;;;;;;;3.97;1.73;;;;;;;8.63;100.00;101019.28;4921633;29;20183;-48
2023/10/13 01:00:46;;;;;;;4.85;1.88;;;;;;;8.63;100.00;101022.81;4935549;29;20199;-49
2023/10/13 01:03:12;;;;;;;7.38;1.60;;;;;;;8.63;100.00;101016.59;4936974;29;20214;-46
2023/10/13 01:05:39;;;;;;;11.27;1.80;;;;;;;8.63;100.00;101006.78;4940718;29;20175;-47
2023/10/13 01:08:10;;;;;;;7.03;1.80;;;;;;;8.65;100.00;101015.63;4922947;29;20192;-47
2023/10/13 01:10:37;;;;;;;7.40;2.58;;;;;;;8.67;100.00;101007.59;4927419;29;20691;-46
2023/10/13 01:13:03;;;;;;;9.75;2.15;;;;;;;8.71;100.00;101021.75;4938856;29;20199;-48
2023/10/13 01:15:33;;;;;;;8.30;2.03;;;;;;;8.72;100.00;101016.34;4937779;29;20340;-49
2023/10/13 01:18:16;;;;;;;5.25;1.92;;;;;;;8.74;100.00;100998.47;4937104;29;20198;-47
2023/10/13 01:20:45;;;;;;;6.43;2.53;;;;;;;8.78;100.00;101005.50;4936308;29;20274;-46
2023/10/13 01:23:18;;;;;;;7.75;2.72;;;;;;;8.78;100.00;101008.16;4926727;29;20199;-47
2023/10/13 01:25:44;;;;;;;8.43;2.75;;;;;;;8.79;100.00;101004.59;4937278;29;20196;-48
2023/10/13 01:28:15;;;;;;;8.13;2.63;;;;;;;8.85;100.00;100995.50;4941175;29;20171;-51
2023/10/13 01:30:50;;;;;;;9.50;2.03;;;;;;;8.86;100.00;100986.59;4942491;29;20558;-50
2023/10/13 01:33:28;;;;;;;7.38;2.38;;;;;;;8.89;100.00;100982.94;4935806;29;20207;-48
2023/10/13 01:35:58;;;;;;;7.53;2.35;;;;;;;8.92;100.00;100982.84;4918679;29;20207;-46
2023/10/13 01:38:27;;;;;;;8.70;2.05;;;;;;;8.95;100.00;100986.31;4922352;29;20289;-47
2023/10/13 01:40:52;;;;;;;10.10;2.30;;;;;;;8.96;100.00;100971.16;4922774;29;20195;-47
2023/10/13 01:43:18;;;;;;;11.40;2.30;;;;;;;8.98;100.00;100970.19;4938643;29;20345;-48
2023/10/13 01:45:47;;;;;;;8.77;2.28;;;;;;;8.99;100.00;100950.56;4933433;29;20182;-49
2023/10/13 01:48:16;;;;;;;5.45;1.90;;;;;;;9.03;100.00;100946.91;4935388;29;20247;-54
2023/10/13 01:50:47;;;;;;;7.63;2.13;;;;;;;9.07;100.00;100943.22;4940173;29;20198;-49
2023/10/13 01:53:14;;;;;;;11.35;2.15;;;;;;;9.10;100.00;100936.03;4935110;29;20211;-47
2023/10/13 01:55:43;;;;;;;9.10;2.97;;;;;;;9.13;100.00;100935.91;4929178;29;20215;-46
2023/10/13 01:58:18;;;;;;;10.32;2.22;;;;;;;9.17;100.00;100927.75;4921872;29;20635;-48
2023/10/13 02:00:45;;;;;;;5.57;2.03;;;;;;;9.21;100.00;100921.38;4934620;29;20195;-47
2023/10/13 02:03:15;;;;;;;6.45;3.05;;;;;;;9.24;100.00;100921.28;4923174;29;20230;-48
2023/10/13 02:05:48;;;;;;;10.30;2.40;;;;;;;9.24;100.00;100925.75;4939462;29;20568;-50
2023/10/13 02:08:22;;;;;;;9.10;2.05;;;;;;;9.28;100.00;100914.91;4933473;29;20595;-47
2023/10/13 02:10:58;;;;;;;8.23;2.50;;;;;;;9.26;100.00;100899.84;4919740;29;20187;-46
2023/10/13 02:13:26;;;;;;;6.95;3.50;;;;;;;9.27;100.00;100890.91;4932052;29;20258;-46
2023/10/13 02:15:56;;;;;;;5.35;2.78;;;;;;;9.34;100.00;100881.78;4938571;29;20685;-48
2023/10/13 02:18:26;;;;;;;7.78;2.85;;;;;;;9.35;100.00;100880.84;4933023;29;20282;-49
2023/10/13 02:20:54;;;;;;;6.72;2.00;;;;;;;9.43;100.00;100884.16;4926236;29;20243;-44
2023/10/13 02:23:29;;;;;;;6.32;2.40;;;;;;;9.44;100.00;100882.34;4933650;29;20215;-47
2023/10/13 02:26:03;;;;;;;7.43;2.28;;;;;;;9.47;100.00;100871.56;4916383;29;20179;-47
2023/10/13 02:28:33;;;;;;;8.98;2.88;;;;;;;9.51;100.00;100866.97;4936082;29;20183;-44
2023/10/13 02:31:05;;;;;;;16.42;2.95;;;;;;;9.48;100.00;100866.13;4934091;29;20273;-41
2023/10/13 02:33:31;;;;;;;8.05;2.67;;;;;;;9.50;100.00;100860.75;4938080;29;20199;-43
2023/10/13 02:36:05;;;;;;;14.90;3.13;;;;;;;9.52;100.00;100844.66;4932323;29;20298;-44
2023/10/13 02:41:05;;;;;;;10.93;3.53;;;;;;;9.56;100.00;100835.63;4937839;29;20698;-42
2023/10/13 02:43:35;;;;;;;8.93;3.20;;;;;;;9.62;100.00;100838.06;4933542;29;20218;-43
2023/10/13 02:46:01;;;;;;;7.90;2.70;;;;;;;9.63;100.00;100839.81;4937194;29;20691;-42
2023/10/13 02:48:38;;;;;;;5.80;3.40;;;;;;;9.62;100.00;100843.41;4937709;29;20222;-45
2023/10/13 02:51:07;;;;;;;8.85;3.20;;;;;;;9.63;100.00;100831.78;4937058;29;20209;-44
2023/10/13 02:53:33;;;;;;;8.68;3.53;;;;;;;9.64;100.00;100828.19;4935098;29;20281;-43
2023/10/13 02:56:05;;;;;;;11.00;3.13;;;;;;;9.66;100.00;100815.63;4921585;29;20306;-43
2023/10/13 02:58:43;;;;;;;7.68;3.97;;;;;;;9.67;100.00;100820.06;4940702;29;20584;-42
2023/10/13 03:01:18;;;;;;;5.82;3.83;;;;;;;9.69;100.00;100823.56;4924630;29;20214;-42
2023/10/13 03:03:54;;;;;;;13.27;4.38;;;;;;;9.68;100.00;100809.28;4934631;29;20253;-44
2023/10/13 03:06:24;;;;;;;11.13;4.35;;;;;;;9.70;100.00;100817.28;4937399;29;20179;-42
2023/10/13 03:08:51;;;;;;;15.82;5.60;;;;;;;9.73;100.00;100818.97;4922650;29;20643;-43
2023/10/13 03:11:21;;;;;;;12.52;4.90;;;;;;;9.73;100.00;100808.25;4940913;29;20183;-43
2023/10/13 03:13:48;;;;;;;14.82;5.45;;;;;;;9.76;100.00;100808.16;4941797;29;20215;-42
2023/10/13 03:16:19;;;;;;;10.45;5.30;;;;;;;9.76;100.00;100817.06;4939234;29;20242;-43
2023/10/13 03:18:56;;;;;;;15.32;5.78;;;;;;;9.76;100.00;100806.34;4924993;29;20184;-41
2023/10/13 03:21:29;;;;;;;19.27;6.45;;;;;;;9.78;100.00;100796.47;4916562;29;20270;-42
2023/10/13 03:23:56;;;;;;;18.35;6.15;;;;;;;9.80;100.00;100789.28;4937264;29;20203;-42
2023/10/13 03:26:22;;;;;;;23.50;6.32;;;;;;;9.79;100.00;100790.19;4938472;29;20218;-41
2023/10/13 03:28:52;;;;;;;22.85;7.65;;;;;;;9.80;100.00;100785.72;4925126;29;20191;-42
2023/10/13 03:31:19;;;;;;;20.70;7.93;;;;;;;9.83;100.00;100773.09;4934295;29;20187;-43
2023/10/13 03:33:46;;;;;;;25.23;8.40;;;;;;;9.84;100.00;100772.19;4936281;29;20196;-40
2023/10/13 03:36:35;;;;;;;29.48;8.95;;;;;;;9.86;100.00;100778.34;4934881;29;20260;-40
2023/10/13 03:38:58;;;;;;;30.95;8.98;;;;;;;9.87;100.00;100768.50;4937177;29;20234;-43
2023/10/13 03:41:30;;;;;;;28.13;8.80;;;;;;;9.90;100.00;100766.63;4924559;29;20210;-40
2023/10/13 03:44:08;;;;;;;32.38;9.00;;;;;;;9.93;100.00;100759.38;4936558;29;20206;-42
2023/10/13 03:46:36;;;;;;;28.60;8.95;;;;;;;9.95;100.00;100757.50;4935513;29;20209;-42
2023/10/13 03:49:06;;;;;;;31.25;9.40;;;;;;;9.96;100.00;100749.44;4944072;29;20215;-44
2023/10/13 03:51:31;;;;;;;31.25;10.13;;;;;;;10.00;100.00;100745.72;4924784;29;20598;-42
2023/10/13 03:53:58;;;;;;;43.38;11.13;;;;;;;10.03;100.00;100750.09;4940223;29;20235;-43
2023/10/13 03:56:26;;;;;;;37.47;11.05;;;;;;;10.04;100.00;100738.47;4924443;29;20231;-43
2023/10/13 03:59:35;;;;;;;52.67;12.30;;;;;;;10.07;100.00;100727.63;4939923;29;20171;-42
2023/10/13 04:02:02;;;;;;;36.33;10.63;;;;;;;10.10;100.00;100723.03;4938871;29;20237;-41
2023/10/13 04:07:39;;;;;;;40.03;11.63;;;;;;;10.17;100.00;100718.31;4939744;29;20673;-45
2023/10/13 04:17:27;;;;;;;41.05;11.07;;;;;;;10.26;100.00;100701.03;4940937;29;20193;-44
2023/10/13 04:30:57;;;;;;;45.88;12.80;;;;;;;10.39;100.00;100677.34;4940286;29;20243;-44
2023/10/13 04:33:43;;;;;;;39.13;11.93;;;;;;;10.44;100.00;100684.25;4936695;29;20203;-43
2023/10/13 04:38:56;;;;;;;56.20;12.68;;;;;;;10.46;100.00;100666.31;4938870;29;20513;-44
2023/10/13 04:41:42;;;;;;;44.50;12.25;;;;;;;10.51;100.00;100675.03;4926904;29;20215;-44
2023/10/13 04:54:45;;;;;;;45.33;12.30;;;;;;;10.66;100.00;100636.03;4939852;29;20584;-44
2023/10/13 05:51:47;;;;;;;29.75;10.98;;;;;;;11.55;100.00;100543.63;4937422;29;20604;-41
2023/10/13 06:29:35;;;;;;;43.50;16.85;;;;;;;12.39;100.00;100548.53;4937775;29;20183;-43
2023/10/13 06:32:01;;;;;;;45.03;17.67;;;;;;;12.36;100.00;100546.88;4936485;29;20187;-42
2023/10/13 06:34:45;;;;;;;49.45;17.60;;;;;;;12.41;100.00;100535.91;4924613;29;20198;-43
2023/10/13 06:37:24;;;;;;;55.13;19.88;;;;;;;12.49;100.00;100539.06;4933740;29;20215;-43
2023/10/13 06:39:50;;;;;;;58.22;20.55;;;;;;;12.57;100.00;100544.03;4937413;29;20277;-43
2023/10/13 06:42:18;;;;;;;53.47;20.30;;;;;;;12.61;100.00;100540.25;4940249;29;20263;-42
2023/10/13 06:44:47;;;;;;;58.67;20.88;;;;;;;12.61;100.00;100524.13;4932166;29;20682;-43
2023/10/13 06:47:13;;;;;;;61.47;21.45;;;;;;;12.68;100.00;100525.56;4935494;29;20183;-43
2023/10/13 06:49:43;;;;;;;54.97;22.02;;;;;;;12.74;100.00;100530.59;4934300;29;20187;-43
2023/10/13 06:52:11;;;;;;;63.88;23.80;;;;;;;12.79;100.00;100522.34;4936812;29;20280;-46
2023/10/13 06:54:39;;;;;;;69.90;24.55;;;;;;;12.78;100.00;100517.88;4938136;29;20359;-46
2023/10/13 06:57:10;;;;;;;63.88;23.27;;;;;;;12.83;100.00;100525.72;4935361;29;20210;-45
2023/10/13 06:59:36;;;;;;;63.13;24.75;;;;;;;12.93;100.00;100516.22;4936641;29;20177;-45
2023/10/13 07:02:06;;;;;;;69.93;23.77;;;;;;;12.93;100.00;100521.59;4938921;29;20265;-43
2023/10/13 07:04:39;;;;;;;67.20;25.60;;;;;;;12.96;100.00;100521.41;4934387;29;20222;-45
2023/10/13 07:07:05;;;;;;;75.53;25.58;;;;;;;13.03;100.00;100521.97;4935996;29;20187;-44
2023/10/13 07:12:06;;;;;;;78.50;28.55;;;;;;;13.15;100.00;100514.09;4939450;29;20261;-43
2023/10/13 07:14:40;;;;;;;72.38;27.02;;;;;;;13.15;100.00;100510.56;4936079;29;20207;-43
2023/10/13 07:17:07;;;;;;;77.03;27.23;;;;;;;13.18;100.00;100502.31;4938918;29;20219;-44
2023/10/13 07:19:33;;;;;;;73.63;26.88;;;;;;;13.27;100.00;100492.88;4943009;29;20198;-44
2023/10/13 07:22:18;;;;;;;79.07;27.23;;;;;;;13.30;100.00;100500.81;4936876;29;20171;-43
2023/10/13 07:24:50;;;;;;;77.15;27.67;;;;;;;13.32;100.00;100496.22;4942032;29;20218;-44
2023/10/13 07:27:23;;;;;;;76.63;28.23;;;;;;;13.34;100.00;100488.94;4940046;29;20212;-45
2023/10/13 07:32:36;;;;;;;72.25;26.17;;;;;;;13.43;100.00;100491.13;4940298;29;20179;-43
2023/10/13 07:35:08;;;;;;;71.47;26.38;;;;;;;13.49;100.00;100479.13;4941468;29;21497;-43
2023/10/13 07:37:33;;;;;;;74.93;27.33;;;;;;;13.54;100.00;100467.16;4940963;29;20190;-43
2023/10/13 07:39:59;;;;;;;75.80;30.85;;;;;;;13.54;100.00;100475.22;4939377;29;20791;-43
2023/10/13 07:42:31;;;;;;;84.18;34.35;;;;;;;13.62;100.00;100466.69;4938233;29;20188;-44
2023/10/13 07:44:58;;;;;;;72.43;31.73;;;;;;;13.67;100.00;100453.88;4943014;29;20195;-44
2023/10/13 07:47:26;;;;;;;74.57;32.25;;;;;;;13.71;100.00;100438.38;4938065;29;20187;-44
2023/10/13 07:49:52;;;;;;;72.18;30.52;;;;;;;13.77;100.00;100438.94;4942919;29;20190;-45
2023/10/13 07:54:49;;;;;;;62.67;28.40;;;;;;;13.89;100.00;100431.09;4943128;29;20356;-44
2023/10/13 07:57:14;;;;;;;69.75;28.80;;;;;;;13.94;100.00;100439.75;4942548;29;20687;-43
2023/10/13 07:59:48;;;;;;;70.75;29.13;;;;;;;13.97;100.00;100424.31;4938949;29;20194;-45
2023/10/13 08:02:33;;;;;;;58.58;26.02;;;;;;;14.05;100.00;100420.28;4942046;29;20389;-45
2023/10/13 08:04:59;;;;;;;63.40;27.02;;;;;;;14.10;100.00;100418.16;4939677;29;20591;-44
2023/10/13 08:07:28;;;;;;;61.20;28.95;;;;;;;14.17;100.00;100411.47;4941273;29;20190;-44
2023/10/13 08:09:54;;;;;;;58.83;26.83;;;;;;;14.18;100.00;100405.13;4940353;29;20213;-44
2023/10/13 08:12:21;;;;;;;59.33;26.83;;;;;;;14.26;100.00;100401.97;4938389;29;20176;-45
2023/10/13 08:14:47;;;;;;;59.55;26.38;;;;;;;14.27;100.00;100406.38;4938761;29;20205;-43
2023/10/13 08:17:16;;;;;;;60.35;26.88;;;;;;;14.35;100.00;100406.78;4940173;29;20209;-43
2023/10/13 08:19:47;;;;;;;57.80;26.33;;;;;;;14.37;100.00;100396.78;4940666;29;20187;-43
2023/10/13 08:42:52;;;;;;;38.20;20.33;;;;;;;14.60;100.00;100368.44;4937519;29;20187;-44
2023/10/13 08:48:14;;;;;;;33.53;19.27;;;;;;;14.62;100.00;100372.75;4938118;29;20183;-43
2023/10/13 08:50:48;;;;;;;34.30;19.15;;;;;;;14.66;100.00;100368.06;4936844;29;20207;-43
2023/10/13 08:56:34;;;;;;;30.73;17.40;;;;;;;14.66;100.00;100364.50;4937732;29;20211;-43
2023/10/13 08:59:09;;;;;;;29.00;16.65;;;;;;;14.71;100.00;100362.38;4938770;29;20179;-43
2023/10/13 09:01:48;;;;;;;23.30;15.13;;;;;;;14.74;100.00;100354.09;4936590;29;20546;-43
2023/10/13 09:12:13;;;;;;;22.15;14.15;;;;;;;14.78;100.00;100329.53;4940132;29;20187;-44
2023/10/13 09:14:48;;;;;;;22.58;13.63;;;;;;;14.86;100.00;100325.47;4941330;29;20262;-44
2023/10/13 09:19:49;;;;;;;18.13;11.88;;;;;;;14.91;100.00;100317.94;4939092;29;20180;-43
2023/10/13 09:22:35;;;;;;;16.48;11.43;;;;;;;14.84;100.00;100312.06;4922497;29;20230;-44
2023/10/13 09:25:13;;;;;;;16.27;10.55;;;;;;;14.84;100.00;100307.53;4943128;29;20294;-45
2023/10/13 09:27:39;;;;;;;15.68;10.40;;;;;;;14.85;100.00;100303.03;4938555;29;20175;-43
2023/10/13 09:30:10;;;;;;;13.80;10.07;;;;;;;14.84;100.00;100294.06;4942310;29;20226;-43
2023/10/13 09:32:51;;;;;;;10.65;8.52;;;;;;;14.82;100.00;100287.03;4937216;29;20182;-44
2023/10/13 09:35:18;;;;;;;9.82;8.35;;;;;;;14.81;100.00;100286.19;4939647;29;20188;-43
2023/10/13 09:37:47;;;;;;;9.35;8.10;;;;;;;14.86;100.00;100285.03;4937016;29;20642;-45
2023/10/13 09:41:18;;;;;;;9.27;7.72;;;;;;;14.86;100.00;100285.03;4942629;29;20593;-44
2023/10/13 09:43:15;;;;;;;9.05;7.18;;;;;;;14.95;100.00;100262.84;4934476;29;20686;-46
2023/10/13 09:46:01;;;;;;;7.32;6.53;;;;;;;14.88;100.00;100250.72;4934736;29;20555;-44
2023/10/13 09:48:41;;;;;;;8.95;6.93;;;;;;;14.92;100.00;100250.41;4941353;29;20193;-44
2023/10/13 09:51:13;;;;;;;7.25;6.20;;;;;;;15.00;100.00;100233.75;4940317;29;20174;-44
2023/10/13 09:53:49;;;;;;;7.55;6.63;;;;;;;14.94;100.00;100234.16;4936882;29;20613;-43
2023/10/13 09:56:23;;;;;;;6.30;5.80;;;;;;;15.03;100.00;100234.38;4939528;29;20670;-43
2023/10/13 09:59:00;;;;;;;6.47;5.88;;;;;;;14.94;100.00;100235.00;4941886;29;20705;-44
2023/10/13 10:01:31;;;;;;;10.27;5.93;;;;;;;14.96;100.00;100216.88;4934725;29;20210;-43
2023/10/13 10:04:23;;;;;;;6.90;5.97;;;;;;;14.97;100.00;100231.22;4935656;29;20207;-44
2023/10/13 10:06:56;;;;;;;6.82;6.22;;;;;;;14.99;100.00;100223.91;4925347;29;20207;-43
2023/10/13 10:09:37;;;;;;;6.20;5.60;;;;;;;15.04;100.00;100219.06;4935745;29;20194;-43
2023/10/13 10:12:33;;;;;;;6.45;5.63;;;;;;;15.12;100.00;100214.03;4934264;29;20176;-44
2023/10/13 10:15:11;;;;;;;5.97;5.47;;;;;;;15.16;100.00;100204.75;4937569;29;20211;-44
2023/10/13 10:17:43;;;;;;;7.65;5.60;;;;;;;15.22;100.00;100201.66;4937884;29;20180;-45
2023/10/13 10:20:19;;;;;;;6.45;5.93;;;;;;;15.23;100.00;100181.78;4938405;29;20210;-44
2023/10/13 10:22:59;;;;;;;6.97;6.07;;;;;;;15.27;100.00;100182.44;4940117;29;20239;-43
2023/10/13 10:25:35;;;;;;;7.40;6.55;;;;;;;15.23;100.00;100184.47;4933905;29;20250;-43
2023/10/13 10:28:05;;;;;;;6.68;6.07;;;;;;;15.22;100.00;100176.50;4938322;29;20175;-44
2023/10/13 10:30:35;;;;;;;6.90;6.28;;;;;;;15.22;100.00;100192.69;4937782;29;20729;-43
2023/10/13 10:33:35;;;;;;;8.40;6.65;;;;;;;15.16;100.00;100188.56;4934153;29;20191;-43
2023/10/13 10:36:01;;;;;;;8.13;6.78;;;;;;;15.13;100.00;100172.59;4937188;29;20561;-43
2023/10/13 10:41:05;;;;;;;10.40;6.82;;;;;;;15.08;100.00;100155.84;4922527;29;20182;-42
2023/10/13 10:43:43;;;;;;;8.40;5.80;;;;;;;15.08;100.00;100139.66;4934716;29;20242;-42
2023/10/13 10:46:13;;;;;;;8.93;6.57;;;;;;;15.14;100.00;100119.50;4938995;29;20217;-41
2023/10/13 10:48:42;;;;;;;9.00;6.45;;;;;;;15.12;100.00;100098.00;4934046;29;20196;-41
2023/10/13 10:51:23;;;;;;;8.57;6.18;;;;;;;15.14;100.00;100095.19;4938061;29;20246;-41
2023/10/13 10:53:51;;;;;;;11.02;6.70;;;;;;;15.17;100.00;100085.03;4933579;29;20209;-41
2023/10/13 10:56:37;;;;;;;11.35;7.00;;;;;;;15.17;100.00;100062.59;4933512;29;20308;-42
2023/10/13 10:59:08;;;;;;;9.18;7.40;;;;;;;15.17;100.00;100063.44;4935493;29;20174;-44
2023/10/13 11:01:46;;;;;;;9.63;6.80;;;;;;;15.23;100.00;100044.13;4933307;29;20266;-43
2023/10/13 11:06:54;;;;;;;9.55;7.70;;;;;;;15.36;100.00;100033.34;4933874;29;20206;-44
2023/10/13 11:09:45;;;;;;;8.20;7.38;;;;;;;15.32;100.00;100033.69;4935376;29;20210;-42
2023/10/13 11:12:44;;;;;;;11.52;7.13;;;;;;;15.34;100.00;100011.00;4936771;29;20183;-42
2023/10/13 11:15:14;;;;;;;13.15;7.45;;;;;;;15.52;100.00;99998.00;4936712;29;20258;-44
2023/10/13 11:17:43;;;;;;;15.70;7.80;;;;;;;15.60;100.00;100001.03;4935150;29;20179;-41
2023/10/13 11:20:17;;;;;;;9.98;7.47;;;;;;;15.63;100.00;99998.13;4933440;29;20198;-42
2023/10/13 11:22:47;;;;;;;13.40;7.75;;;;;;;15.64;100.00;99963.88;4933313;29;20263;-41
2023/10/13 11:25:29;;;;;;;10.45;8.02;;;;;;;15.76;100.00;99965.69;4940167;29;20617;-42
2023/10/13 11:27:56;;;;;;;8.18;7.07;;;;;;;15.80;100.00;99959.09;4937414;29;20198;-43
2023/10/13 11:33:06;;;;;;;8.80;6.90;;;;;;;15.78;100.00;99935.88;4935409;29;20179;-43
2023/10/13 11:51:48;;;;;;;13.43;6.82;;;;;;;15.93;100.00;99860.94;4934480;29;20713;-43
2023/10/13 11:54:23;;;;;;;10.00;6.88;;;;;;;15.97;100.00;99865.97;4936903;29;20618;-44
2023/10/13 11:56:49;;;;;;;11.38;6.57;;;;;;;15.99;100.00;99853.22;4937034;29;20629;-42
2023/10/13 11:59:18;;;;;;;10.05;6.65;;;;;;;16.10;100.00;99832.63;4935337;29;20177;-44
2023/10/13 12:07:26;;;;;;;13.35;6.43;;;;;;;16.18;100.00;99836.47;4935504;29;20213;-44
2023/10/13 12:12:26;;;;;;;11.70;6.68;;;;;;;16.27;100.00;99800.59;4938878;29;20191;-43
2023/10/13 12:14:56;;;;;;;12.68;6.22;;;;;;;16.30;100.00;99799.50;4938438;29;20194;-44
2023/10/13 12:17:39;;;;;;;14.50;6.93;;;;;;;16.32;100.00;99792.13;4937167;29;20295;-46
2023/10/13 12:20:10;;;;;;;10.70;5.88;;;;;;;16.34;100.00;99765.84;4942460;29;20282;-43
2023/10/13 12:22:42;;;;;;;11.23;5.97;;;;;;;16.37;100.00;99780.94;4940704;29;20187;-43
2023/10/13 12:27:56;;;;;;;14.05;6.20;;;;;;;16.55;100.00;99743.47;4940457;29;20612;-43
2023/10/13 12:30:35;;;;;;;14.40;6.78;;;;;;;16.68;100.00;99734.25;4938933;29;20220;-42
2023/10/13 12:33:08;;;;;;;13.23;6.13;;;;;;;16.85;100.00;99722.06;4938699;29;20178;-43
2023/10/13 12:35:44;;;;;;;10.45;5.85;;;;;;;17.13;100.00;99706.25;4938245;29;20537;-44
2023/10/13 12:38:36;;;;;;;8.95;6.50;;;;;;;17.25;100.00;99694.41;4937757;29;20175;-44
2023/10/13 12:51:52;;;;;;;13.35;7.32;;;;;;;17.32;100.00;99681.22;4940236;29;20252;-43
2023/10/13 12:54:23;;;;;;;14.05;7.88;;;;;;;17.34;100.00;99672.94;4945499;29;20293;-41
2023/10/13 12:56:54;;;;;;;11.65;7.07;;;;;;;17.37;100.00;99660.00;4922842;29;20218;-41
2023/10/13 12:59:26;;;;;;;9.52;6.60;;;;;;;17.42;100.00;99665.03;4938855;29;20186;-41
2023/10/13 13:01:53;;;;;;;10.57;6.35;;;;;;;17.49;100.00;99645.44;4936709;29;20231;-41
2023/10/13 13:04:23;;;;;;;15.05;6.90;;;;;;;17.53;100.00;99650.56;4943206;29;20203;-41
2023/10/13 13:06:50;;;;;;;13.77;6.85;;;;;;;17.60;100.00;99635.50;4938115;29;20179;-42
2023/10/13 13:09:25;;;;;;;11.73;7.28;;;;;;;17.66;100.00;99625.00;4935102;29;20194;-43
2023/10/13 13:11:52;;;;;;;10.13;5.93;;;;;;;17.74;100.00;99632.47;4934369;29;20560;-41
2023/10/13 13:14:17;;;;;;;14.00;6.15;;;;;;;17.83;100.00;99631.69;4939839;29;20375;-42
2023/10/13 13:16:48;;;;;;;13.25;6.05;;;;;;;17.93;100.00;99604.66;4939923;29;20246;-40
2023/10/13 13:19:14;;;;;;;12.20;6.53;;;;;;;17.95;100.00;99608.09;4937793;28;20583;-40
2023/10/13 13:21:39;;;;;;;10.15;5.47;;;;;;;18.02;100.00;99611.97;4938871;29;20199;-41
2023/10/13 13:24:13;;;;;;;10.45;5.68;;;;;;;18.10;100.00;99595.00;4937365;29;20354;-41
2023/10/13 13:26:42;;;;;;;15.32;5.60;;;;;;;18.18;100.00;99608.72;4938550;29;20199;-43
2023/10/13 13:29:10;;;;;;;17.45;5.60;;;;;;;18.20;100.00;99581.50;4940733;29;20175;-41
2023/10/13 13:31:41;;;;;;;12.68;5.18;;;;;;;18.22;100.00;99583.06;4920714;29;20179;-43
2023/10/13 13:34:09;;;;;;;9.30;4.72;;;;;;;18.21;100.00;99569.63;4940241;29;20211;-42
2023/10/13 13:36:35;;;;;;;15.05;5.88;;;;;;;18.17;100.00;99563.66;4938274;29;20200;-42
2023/10/13 13:39:01;;;;;;;13.18;5.28;;;;;;;18.23;100.00;99575.78;4938403;29;21002;-42
2023/10/13 13:41:27;;;;;;;11.10;5.32;;;;;;;18.30;100.00;99557.94;4936007;29;20560;-41
2023/10/13 13:43:56;;;;;;;11.30;5.55;;;;;;;18.28;100.00;99568.97;4937978;29;20290;-42
2023/10/13 13:46:32;;;;;;;10.95;5.32;;;;;;;18.35;100.00;99566.53;4941057;29;20178;-41
2023/10/13 13:48:59;;;;;;;12.25;5.53;;;;;;;18.40;100.00;99542.56;4938257;29;20179;-41
2023/10/13 13:51:27;;;;;;;10.60;5.63;;;;;;;18.41;100.00;99543.41;4938012;29;20195;-42
2023/10/13 13:53:56;;;;;;;13.45;5.38;;;;;;;18.42;100.00;99551.41;4937223;29;20218;-43
2023/10/13 13:56:25;;;;;;;11.00;5.40;;;;;;;18.41;100.00;99551.56;4936928;29;20216;-41
2023/10/13 13:59:07;;;;;;;12.98;5.22;;;;;;;18.47;100.00;99543.72;4936354;29;20179;-43
2023/10/13 14:01:34;;;;;;;9.82;4.60;;;;;;;18.45;100.00;99532.13;4942394;29;20189;-41
2023/10/13 14:04:03;;;;;;;11.88;5.70;;;;;;;18.44;100.00;99533.16;4939106;29;20243;-42
2023/10/13 14:06:29;;;;;;;12.45;5.22;;;;;;;18.49;100.00;99536.28;4938213;29;20235;-41
2023/10/13 14:09:04;;;;;;;12.55;5.65;;;;;;;18.50;100.00;99531.75;4935849;29;20191;-41
2023/10/13 14:14:12;;;;;;;12.85;4.85;;;;;;;18.77;100.00;99533.75;4937171;29;20229;-41
2023/10/13 14:16:46;;;;;;;15.10;5.30;;;;;;;18.72;100.00;99522.47;4935735;29;20270;-40
2023/10/13 14:19:12;;;;;;;11.43;5.05;;;;;;;18.60;100.00;99537.16;4937784;29;20182;-42
2023/10/13 14:21:38;;;;;;;11.88;5.20;;;;;;;18.58;100.00;99523.72;4920845;29;20199;-41
2023/10/13 14:24:13;;;;;;;15.15;5.22;;;;;;;18.60;100.00;99527.16;4935419;29;20199;-40
2023/10/13 14:26:39;;;;;;;10.43;4.97;;;;;;;18.51;100.00;99523.44;4937107;29;20190;-42
2023/10/13 14:29:08;;;;;;;10.85;4.90;;;;;;;18.51;100.00;99515.31;4937124;29;20315;-42
2023/10/13 14:31:39;;;;;;;13.27;5.13;;;;;;;18.53;100.00;99513.31;4937319;29;20183;-42
2023/10/13 14:34:06;;;;;;;16.50;5.68;;;;;;;18.58;100.00;99510.16;4933975;29;20191;-42
2023/10/13 14:36:36;;;;;;;15.02;4.97;;;;;;;18.48;100.00;99504.75;4935312;29;20313;-43
2023/10/13 14:39:02;;;;;;;15.05;5.75;;;;;;;18.42;100.00;99499.88;4935166;29;20184;-41
2023/10/13 14:41:29;;;;;;;15.63;5.40;;;;;;;18.28;100.00;99501.16;4933775;29;20187;-43
2023/10/13 14:44:02;;;;;;;17.20;5.38;;;;;;;18.15;100.00;99515.97;4939154;29;20200;-43
2023/10/13 14:46:28;;;;;;;17.25;6.13;;;;;;;17.87;100.00;99515.78;4922602;29;20171;-41
2023/10/13 14:48:54;;;;;;;11.82;5.88;;;;;;;17.71;100.00;99516.25;4935388;29;20522;-42
2023/10/13 14:51:20;;;;;;;20.48;6.47;;;;;;;17.59;100.00;99514.63;4935801;29;20206;-42
2023/10/13 14:53:47;;;;;;;15.27;6.30;;;;;;;17.53;100.00;99532.25;4938204;29;20698;-42
2023/10/13 14:56:13;;;;;;;13.00;6.10;;;;;;;17.45;100.00;99503.16;4935821;29;20354;-41
2023/10/13 14:58:42;;;;;;;17.30;5.60;;;;;;;17.44;100.00;99503.28;4935209;29;20175;-41
2023/10/13 15:01:15;;;;;;;12.73;5.82;;;;;;;17.39;100.00;99516.38;4933561;29;20194;-42
2023/10/13 15:03:51;;;;;;;10.30;5.85;;;;;;;17.29;100.00;99530.75;4938776;29;20215;-41
2023/10/13 15:06:18;;;;;;;17.95;7.22;;;;;;;17.34;100.00;99524.03;4934820;29;20171;-41
2023/10/13 15:08:48;;;;;;;21.02;6.38;;;;;;;17.29;100.00;99519.03;4935208;29;20187;-41
2023/10/13 15:11:14;;;;;;;21.77;6.78;;;;;;;17.24;100.00;99505.91;4934310;29;20598;-40
2023/10/13 15:13:40;;;;;;;15.00;5.93;;;;;;;17.26;100.00;99492.25;4938404;29;20227;-42
2023/10/13 15:16:16;;;;;;;13.32;6.28;;;;;;;17.18;100.00;99497.47;4934661;29;20297;-40
2023/10/13 15:18:46;;;;;;;11.25;6.38;;;;;;;17.19;100.00;99497.34;4936992;29;20175;-41
2023/10/13 15:21:19;;;;;;;16.45;6.47;;;;;;;17.08;100.00;99500.97;4935826;29;20207;-41